Station: ELLX - 23/06/2018 04:20Z (il y a 13 minutes)
ELLX 230420Z 36008KT 320V030 9999 FEW020 08/07 Q1027 NOSIG
Vent du 360º - 8 kt (vent de direction variable de 320º à 030º)
Visibilité > 10 km
Nuages épars à 2000 pieds
Température: +08ºC - Point de rosée: +07ºC - QNH: 1027 hPa
Pas de changement significatif prévu dans les 2 heures qui suivent l'observation